sensor_id;sensor_type;location;lat;lon;timestamp;P1;durP1;ratioP1;P2;durP2;ratioP2
16916;SDS011;8575;52.418;13.492;2022-12-11T00:00:21;8.77;;;8.15;;
16916;SDS011;8575;52.418;13.492;2022-12-11T00:02:23;8.73;;;8.13;;
16916;SDS011;8575;52.418;13.492;2022-12-11T00:04:28;7.75;;;7.18;;
16916;SDS011;8575;52.418;13.492;2022-12-11T00:06:35;8.18;;;7.65;;
16916;SDS011;8575;52.418;13.492;2022-12-11T00:08:38;8.75;;;8.15;;
16916;SDS011;8575;52.418;13.492;2022-12-11T00:10:45;8.30;;;7.78;;
16916;SDS011;8575;52.418;13.492;2022-12-11T00:12:48;8.70;;;8.10;;
16916;SDS011;8575;52.418;13.492;2022-12-11T00:14:51;8.20;;;7.63;;
16916;SDS011;8575;52.418;13.492;2022-12-11T00:16:54;8.82;;;8.20;;
16916;SDS011;8575;52.418;13.492;2022-12-11T00:18:57;8.88;;;8.27;;
16916;SDS011;8575;52.418;13.492;2022-12-11T00:20:59;8.25;;;7.65;;
16916;SDS011;8575;52.418;13.492;2022-12-11T00:23:03;8.77;;;8.18;;
16916;SDS011;8575;52.418;13.492;2022-12-11T00:25:06;11.07;;;10.18;;
16916;SDS011;8575;52.418;13.492;2022-12-11T00:27:09;8.73;;;8.10;;
16916;SDS011;8575;52.418;13.492;2022-12-11T00:29:14;9.50;;;8.80;;
16916;SDS011;8575;52.418;13.492;2022-12-11T00:31:17;9.27;;;8.57;;
16916;SDS011;8575;52.418;13.492;2022-12-11T00:33:21;8.75;;;8.10;;
16916;SDS011;8575;52.418;13.492;2022-12-11T00:35:23;8.13;;;7.53;;
16916;SDS011;8575;52.418;13.492;2022-12-11T00:37:26;10.52;;;9.73;;
16916;SDS011;8575;52.418;13.492;2022-12-11T00:39:29;9.68;;;8.98;;
16916;SDS011;8575;52.418;13.492;2022-12-11T00:41:31;7.97;;;7.45;;
16916;SDS011;8575;52.418;13.492;2022-12-11T00:43:33;7.80;;;7.30;;
16916;SDS011;8575;52.418;13.492;2022-12-11T00:45:36;9.68;;;9.07;;
16916;SDS011;8575;52.418;13.492;2022-12-11T00:47:41;9.05;;;8.38;;
16916;SDS011;8575;52.418;13.492;2022-12-11T00:49:45;7.97;;;7.45;;
16916;SDS011;8575;52.418;13.492;2022-12-11T00:51:47;8.43;;;7.82;;
16916;SDS011;8575;52.418;13.492;2022-12-11T00:53:49;7.93;;;7.32;;
16916;SDS011;8575;52.418;13.492;2022-12-11T00:55:51;8.93;;;8.30;;
16916;SDS011;8575;52.418;13.492;2022-12-11T00:57:54;7.90;;;7.38;;
16916;SDS011;8575;52.418;13.492;2022-12-11T00:59:57;8.88;;;8.18;;
16916;SDS011;8575;52.418;13.492;2022-12-11T01:01:59;8.20;;;7.60;;
16916;SDS011;8575;52.418;13.492;2022-12-11T01:04:02;8.13;;;7.53;;
16916;SDS011;8575;52.418;13.492;2022-12-11T01:06:06;8.23;;;7.63;;
16916;SDS011;8575;52.418;13.492;2022-12-11T01:08:08;8.52;;;7.88;;
16916;SDS011;8575;52.418;13.492;2022-12-11T01:10:11;55.17;;;29.07;;
16916;SDS011;8575;52.418;13.492;2022-12-11T01:12:25;481.03;;;345.73;;
16916;SDS011;8575;52.418;13.492;2022-12-11T01:14:28;510.80;;;409.43;;
16916;SDS011;8575;52.418;13.492;2022-12-11T01:16:30;506.97;;;431.30;;
16916;SDS011;8575;52.418;13.492;2022-12-11T01:18:33;459.13;;;292.47;;
16916;SDS011;8575;52.418;13.492;2022-12-11T01:20:36;8.48;;;7.88;;
16916;SDS011;8575;52.418;13.492;2022-12-11T01:22:40;8.70;;;8.10;;
16916;SDS011;8575;52.418;13.492;2022-12-11T01:24:42;8.73;;;8.07;;
16916;SDS011;8575;52.418;13.492;2022-12-11T01:26:45;11.25;;;10.25;;
16916;SDS011;8575;52.418;13.492;2022-12-11T01:28:48;8.27;;;7.68;;
16916;SDS011;8575;52.418;13.492;2022-12-11T01:30:50;8.50;;;7.80;;
16916;SDS011;8575;52.418;13.492;2022-12-11T01:32:52;8.63;;;7.95;;
16916;SDS011;8575;52.418;13.492;2022-12-11T01:34:55;10.23;;;9.40;;
16916;SDS011;8575;52.418;13.492;2022-12-11T01:36:57;7.70;;;7.10;;
16916;SDS011;8575;52.418;13.492;2022-12-11T01:39:01;7.75;;;7.20;;
16916;SDS011;8575;52.418;13.492;2022-12-11T01:41:03;8.02;;;7.43;;
16916;SDS011;8575;52.418;13.492;2022-12-11T01:43:07;8.55;;;7.95;;
16916;SDS011;8575;52.418;13.492;2022-12-11T01:47:30;9.18;;;8.57;;
16916;SDS011;8575;52.418;13.492;2022-12-11T01:49:32;8.35;;;7.75;;
16916;SDS011;8575;52.418;13.492;2022-12-11T01:51:35;7.55;;;7.00;;
16916;SDS011;8575;52.418;13.492;2022-12-11T01:53:40;8.40;;;7.80;;
16916;SDS011;8575;52.418;13.492;2022-12-11T01:55:48;9.35;;;8.60;;
16916;SDS011;8575;52.418;13.492;2022-12-11T01:57:51;7.75;;;7.22;;
16916;SDS011;8575;52.418;13.492;2022-12-11T01:59:54;171.13;;;45.22;;
16916;SDS011;8575;52.418;13.492;2022-12-11T02:01:58;310.17;;;81.18;;
16916;SDS011;8575;52.418;13.492;2022-12-11T02:04:02;313.85;;;83.63;;
16916;SDS011;8575;52.418;13.492;2022-12-11T02:06:05;7.00;;;6.43;;
16916;SDS011;8575;52.418;13.492;2022-12-11T02:08:27;237.35;;;61.67;;
16916;SDS011;8575;52.418;13.492;2022-12-11T02:10:33;160.18;;;45.85;;
16916;SDS011;8575;52.418;13.492;2022-12-11T02:12:49;6.28;;;5.78;;
16916;SDS011;8575;52.418;13.492;2022-12-11T02:14:58;10.20;;;9.25;;
16916;SDS011;8575;52.418;13.492;2022-12-11T02:17:06;8.00;;;7.32;;
16916;SDS011;8575;52.418;13.492;2022-12-11T02:19:17;7.10;;;6.50;;
16916;SDS011;8575;52.418;13.492;2022-12-11T02:21:32;36.40;;;14.05;;
16916;SDS011;8575;52.418;13.492;2022-12-11T02:26:17;318.13;;;84.60;;
16916;SDS011;8575;52.418;13.492;2022-12-11T02:28:28;7.47;;;6.88;;
16916;SDS011;8575;52.418;13.492;2022-12-11T02:30:32;8.30;;;7.68;;
16916;SDS011;8575;52.418;13.492;2022-12-11T02:32:38;7.07;;;6.47;;
16916;SDS011;8575;52.418;13.492;2022-12-11T02:34:47;7.97;;;7.28;;
16916;SDS011;8575;52.418;13.492;2022-12-11T02:36:51;5.85;;;5.43;;
16916;SDS011;8575;52.418;13.492;2022-12-11T02:38:55;6.88;;;6.28;;
16916;SDS011;8575;52.418;13.492;2022-12-11T02:41:00;7.45;;;6.85;;
16916;SDS011;8575;52.418;13.492;2022-12-11T02:43:05;5.55;;;5.13;;
16916;SDS011;8575;52.418;13.492;2022-12-11T02:45:10;8.63;;;7.82;;
16916;SDS011;8575;52.418;13.492;2022-12-11T02:47:14;6.88;;;6.25;;
16916;SDS011;8575;52.418;13.492;2022-12-11T02:49:18;7.75;;;7.05;;
16916;SDS011;8575;52.418;13.492;2022-12-11T02:51:23;7.15;;;6.55;;
16916;SDS011;8575;52.418;13.492;2022-12-11T02:53:30;7.75;;;7.05;;
16916;SDS011;8575;52.418;13.492;2022-12-11T02:55:33;6.97;;;6.38;;
16916;SDS011;8575;52.418;13.492;2022-12-11T02:57:38;6.78;;;6.25;;
16916;SDS011;8575;52.418;13.492;2022-12-11T02:59:43;6.03;;;5.53;;
16916;SDS011;8575;52.418;13.492;2022-12-11T03:01:48;5.45;;;5.00;;
16916;SDS011;8575;52.418;13.492;2022-12-11T03:03:51;6.88;;;6.28;;
16916;SDS011;8575;52.418;13.492;2022-12-11T03:05:53;6.22;;;5.72;;
16916;SDS011;8575;52.418;13.492;2022-12-11T03:07:56;310.77;;;78.53;;
16916;SDS011;8575;52.418;13.492;2022-12-11T03:09:58;92.97;;;26.35;;
16916;SDS011;8575;52.418;13.492;2022-12-11T03:12:01;7.68;;;7.05;;
16916;SDS011;8575;52.418;13.492;2022-12-11T03:14:03;6.72;;;6.22;;
16916;SDS011;8575;52.418;13.492;2022-12-11T03:16:07;6.57;;;6.05;;
16916;SDS011;8575;52.418;13.492;2022-12-11T03:18:17;7.32;;;6.72;;
16916;SDS011;8575;52.418;13.492;2022-12-11T03:20:24;7.32;;;6.72;;
16916;SDS011;8575;52.418;13.492;2022-12-11T03:22:36;8.20;;;7.43;;
16916;SDS011;8575;52.418;13.492;2022-12-11T03:24:41;6.90;;;6.30;;
16916;SDS011;8575;52.418;13.492;2022-12-11T03:26:48;6.90;;;6.38;;
16916;SDS011;8575;52.418;13.492;2022-12-11T03:28:54;7.10;;;6.50;;
16916;SDS011;8575;52.418;13.492;2022-12-11T03:31:00;6.95;;;6.40;;
16916;SDS011;8575;52.418;13.492;2022-12-11T03:33:05;7.45;;;6.85;;
16916;SDS011;8575;52.418;13.492;2022-12-11T03:35:12;8.93;;;8.13;;
16916;SDS011;8575;52.418;13.492;2022-12-11T03:37:17;6.65;;;6.10;;
16916;SDS011;8575;52.418;13.492;2022-12-11T03:39:20;7.47;;;6.88;;
16916;SDS011;8575;52.418;13.492;2022-12-11T03:41:25;7.38;;;6.78;;
16916;SDS011;8575;52.418;13.492;2022-12-11T03:43:28;7.32;;;6.72;;
16916;SDS011;8575;52.418;13.492;2022-12-11T03:45:32;5.88;;;5.47;;
16916;SDS011;8575;52.418;13.492;2022-12-11T03:47:36;7.78;;;7.07;;
16916;SDS011;8575;52.418;13.492;2022-12-11T03:49:39;7.18;;;6.60;;
16916;SDS011;8575;52.418;13.492;2022-12-11T03:51:44;6.78;;;6.28;;
16916;SDS011;8575;52.418;13.492;2022-12-11T03:53:47;6.57;;;6.07;;
16916;SDS011;8575;52.418;13.492;2022-12-11T03:55:50;8.02;;;7.30;;
16916;SDS011;8575;52.418;13.492;2022-12-11T03:57:52;6.15;;;5.75;;
16916;SDS011;8575;52.418;13.492;2022-12-11T03:59:55;7.72;;;7.10;;
16916;SDS011;8575;52.418;13.492;2022-12-11T04:01:57;6.60;;;6.10;;
16916;SDS011;8575;52.418;13.492;2022-12-11T04:04:00;5.47;;;5.18;;
16916;SDS011;8575;52.418;13.492;2022-12-11T04:06:02;7.00;;;6.45;;
16916;SDS011;8575;52.418;13.492;2022-12-11T04:08:06;9.07;;;8.27;;
16916;SDS011;8575;52.418;13.492;2022-12-11T04:10:08;8.55;;;7.85;;
16916;SDS011;8575;52.418;13.492;2022-12-11T04:12:10;8.15;;;7.47;;
16916;SDS011;8575;52.418;13.492;2022-12-11T04:14:13;7.85;;;7.15;;
16916;SDS011;8575;52.418;13.492;2022-12-11T04:16:33;7.65;;;7.00;;
16916;SDS011;8575;52.418;13.492;2022-12-11T04:18:35;7.57;;;6.93;;
16916;SDS011;8575;52.418;13.492;2022-12-11T04:20:55;7.65;;;7.00;;
16916;SDS011;8575;52.418;13.492;2022-12-11T04:23:16;9.38;;;8.48;;
16916;SDS011;8575;52.418;13.492;2022-12-11T04:25:37;9.27;;;8.43;;
16916;SDS011;8575;52.418;13.492;2022-12-11T04:27:39;7.13;;;6.63;;
16916;SDS011;8575;52.418;13.492;2022-12-11T04:29:50;7.25;;;6.72;;
16916;SDS011;8575;52.418;13.492;2022-12-11T04:31:52;8.35;;;7.65;;
16916;SDS011;8575;52.418;13.492;2022-12-11T04:33:54;6.57;;;6.18;;
16916;SDS011;8575;52.418;13.492;2022-12-11T04:35:57;7.40;;;6.82;;
16916;SDS011;8575;52.418;13.492;2022-12-11T04:38:00;8.88;;;8.13;;
16916;SDS011;8575;52.418;13.492;2022-12-11T04:40:04;8.20;;;7.57;;
16916;SDS011;8575;52.418;13.492;2022-12-11T04:42:08;7.40;;;6.82;;
16916;SDS011;8575;52.418;13.492;2022-12-11T04:44:10;7.43;;;6.85;;
16916;SDS011;8575;52.418;13.492;2022-12-11T04:46:14;8.10;;;7.50;;
16916;SDS011;8575;52.418;13.492;2022-12-11T04:48:16;7.60;;;7.00;;
16916;SDS011;8575;52.418;13.492;2022-12-11T04:50:19;7.43;;;6.85;;
16916;SDS011;8575;52.418;13.492;2022-12-11T04:52:21;7.70;;;7.10;;
16916;SDS011;8575;52.418;13.492;2022-12-11T04:54:23;7.55;;;7.05;;
16916;SDS011;8575;52.418;13.492;2022-12-11T04:56:27;7.05;;;6.55;;
16916;SDS011;8575;52.418;13.492;2022-12-11T04:58:29;7.95;;;7.35;;
16916;SDS011;8575;52.418;13.492;2022-12-11T05:00:31;7.68;;;7.07;;
16916;SDS011;8575;52.418;13.492;2022-12-11T05:02:34;8.27;;;7.68;;
16916;SDS011;8575;52.418;13.492;2022-12-11T05:04:37;7.90;;;7.30;;
16916;SDS011;8575;52.418;13.492;2022-12-11T05:06:39;7.82;;;7.22;;
16916;SDS011;8575;52.418;13.492;2022-12-11T05:08:42;8.10;;;7.50;;
16916;SDS011;8575;52.418;13.492;2022-12-11T05:10:53;6.93;;;6.47;;
16916;SDS011;8575;52.418;13.492;2022-12-11T05:12:57;6.57;;;6.18;;
16916;SDS011;8575;52.418;13.492;2022-12-11T05:14:59;9.43;;;8.63;;
16916;SDS011;8575;52.418;13.492;2022-12-11T05:17:04;7.70;;;7.10;;
16916;SDS011;8575;52.418;13.492;2022-12-11T05:19:07;7.57;;;7.03;;
16916;SDS011;8575;52.418;13.492;2022-12-11T05:21:10;6.78;;;6.38;;
16916;SDS011;8575;52.418;13.492;2022-12-11T05:23:13;8.15;;;7.47;;
16916;SDS011;8575;52.418;13.492;2022-12-11T05:25:15;9.23;;;8.48;;
16916;SDS011;8575;52.418;13.492;2022-12-11T05:27:18;8.80;;;8.10;;
16916;SDS011;8575;52.418;13.492;2022-12-11T05:29:22;6.80;;;6.32;;
16916;SDS011;8575;52.418;13.492;2022-12-11T05:31:25;8.63;;;7.93;;
16916;SDS011;8575;52.418;13.492;2022-12-11T05:33:28;7.97;;;7.38;;
16916;SDS011;8575;52.418;13.492;2022-12-11T05:35:30;8.52;;;7.82;;
16916;SDS011;8575;52.418;13.492;2022-12-11T05:37:33;7.55;;;6.95;;
16916;SDS011;8575;52.418;13.492;2022-12-11T05:39:36;8.57;;;7.93;;
16916;SDS011;8575;52.418;13.492;2022-12-11T05:41:40;8.98;;;8.18;;
16916;SDS011;8575;52.418;13.492;2022-12-11T05:43:42;7.90;;;7.30;;
16916;SDS011;8575;52.418;13.492;2022-12-11T05:45:46;7.95;;;7.35;;
16916;SDS011;8575;52.418;13.492;2022-12-11T05:47:48;6.85;;;6.38;;
16916;SDS011;8575;52.418;13.492;2022-12-11T05:49:50;7.03;;;6.53;;
16916;SDS011;8575;52.418;13.492;2022-12-11T05:51:53;7.55;;;7.05;;
16916;SDS011;8575;52.418;13.492;2022-12-11T05:53:56;6.18;;;5.82;;
16916;SDS011;8575;52.418;13.492;2022-12-11T05:56:00;7.75;;;7.15;;
16916;SDS011;8575;52.418;13.492;2022-12-11T05:58:03;8.40;;;7.78;;
16916;SDS011;8575;52.418;13.492;2022-12-11T06:00:06;9.20;;;8.50;;
16916;SDS011;8575;52.418;13.492;2022-12-11T06:02:10;9.57;;;8.77;;
16916;SDS011;8575;52.418;13.492;2022-12-11T06:04:15;9.30;;;8.52;;
16916;SDS011;8575;52.418;13.492;2022-12-11T06:06:17;9.07;;;8.30;;
16916;SDS011;8575;52.418;13.492;2022-12-11T06:08:20;8.63;;;7.97;;
16916;SDS011;8575;52.418;13.492;2022-12-11T06:10:22;8.95;;;8.25;;
16916;SDS011;8575;52.418;13.492;2022-12-11T06:12:24;7.88;;;7.32;;
16916;SDS011;8575;52.418;13.492;2022-12-11T06:14:28;7.50;;;6.95;;
16916;SDS011;8575;52.418;13.492;2022-12-11T06:16:30;8.23;;;7.55;;
16916;SDS011;8575;52.418;13.492;2022-12-11T06:18:35;8.15;;;7.55;;
16916;SDS011;8575;52.418;13.492;2022-12-11T06:20:37;8.02;;;7.43;;
16916;SDS011;8575;52.418;13.492;2022-12-11T06:22:40;7.43;;;6.85;;
16916;SDS011;8575;52.418;13.492;2022-12-11T06:24:42;7.88;;;7.28;;
16916;SDS011;8575;52.418;13.492;2022-12-11T06:26:44;8.43;;;7.72;;
16916;SDS011;8575;52.418;13.492;2022-12-11T06:28:47;10.80;;;9.80;;
16916;SDS011;8575;52.418;13.492;2022-12-11T06:30:49;7.57;;;7.07;;
16916;SDS011;8575;52.418;13.492;2022-12-11T06:32:52;7.72;;;7.22;;
16916;SDS011;8575;52.418;13.492;2022-12-11T06:34:55;11.07;;;10.00;;
16916;SDS011;8575;52.418;13.492;2022-12-11T06:36:58;7.82;;;7.22;;
16916;SDS011;8575;52.418;13.492;2022-12-11T06:39:00;7.28;;;6.70;;
16916;SDS011;8575;52.418;13.492;2022-12-11T06:41:03;8.40;;;7.75;;
16916;SDS011;8575;52.418;13.492;2022-12-11T06:43:06;9.35;;;8.63;;
16916;SDS011;8575;52.418;13.492;2022-12-11T06:45:09;10.63;;;9.82;;
16916;SDS011;8575;52.418;13.492;2022-12-11T06:47:12;8.93;;;8.30;;
16916;SDS011;8575;52.418;13.492;2022-12-11T06:49:14;8.05;;;7.53;;
16916;SDS011;8575;52.418;13.492;2022-12-11T06:51:18;9.00;;;8.35;;
16916;SDS011;8575;52.418;13.492;2022-12-11T06:53:22;8.75;;;8.18;;
16916;SDS011;8575;52.418;13.492;2022-12-11T06:55:24;8.63;;;8.02;;
16916;SDS011;8575;52.418;13.492;2022-12-11T06:57:26;8.85;;;8.25;;
16916;SDS011;8575;52.418;13.492;2022-12-11T06:59:29;8.60;;;8.00;;
16916;SDS011;8575;52.418;13.492;2022-12-11T07:01:31;8.13;;;7.55;;
16916;SDS011;8575;52.418;13.492;2022-12-11T07:03:33;22.53;;;20.67;;
16916;SDS011;8575;52.418;13.492;2022-12-11T07:05:36;0.87;;;0.87;;
16916;SDS011;8575;52.418;13.492;2022-12-11T07:07:40;2.57;;;2.43;;
16916;SDS011;8575;52.418;13.492;2022-12-11T07:09:42;12.40;;;11.57;;
16916;SDS011;8575;52.418;13.492;2022-12-11T07:11:44;157.40;;;147.53;;
16916;SDS011;8575;52.418;13.492;2022-12-11T07:13:47;97.93;;;90.20;;
16916;SDS011;8575;52.418;13.492;2022-12-11T07:15:49;1.20;;;1.20;;
16916;SDS011;8575;52.418;13.492;2022-12-11T07:17:52;1.57;;;1.50;;
16916;SDS011;8575;52.418;13.492;2022-12-11T07:19:54;121.10;;;114.57;;
16916;SDS011;8575;52.418;13.492;2022-12-11T07:21:57;365.73;;;337.17;;
16916;SDS011;8575;52.418;13.492;2022-12-11T07:24:00;43.50;;;40.53;;
16916;SDS011;8575;52.418;13.492;2022-12-11T07:26:03;343.00;;;318.83;;
16916;SDS011;8575;52.418;13.492;2022-12-11T07:28:06;482.70;;;437.90;;
16916;SDS011;8575;52.418;13.492;2022-12-11T07:30:09;124.43;;;114.43;;
16916;SDS011;8575;52.418;13.492;2022-12-11T07:32:12;469.93;;;422.30;;
16916;SDS011;8575;52.418;13.492;2022-12-11T07:34:14;31.53;;;25.87;;
16916;SDS011;8575;52.418;13.492;2022-12-11T07:36:17;504.27;;;465.90;;
16916;SDS011;8575;52.418;13.492;2022-12-11T07:38:19;494.27;;;406.43;;
16916;SDS011;8575;52.418;13.492;2022-12-11T07:40:23;455.53;;;304.47;;
16916;SDS011;8575;52.418;13.492;2022-12-11T07:42:25;237.83;;;217.10;;
16916;SDS011;8575;52.418;13.492;2022-12-11T07:44:27;482.10;;;404.00;;
16916;SDS011;8575;52.418;13.492;2022-12-11T07:46:30;559.57;;;502.67;;
16916;SDS011;8575;52.418;13.492;2022-12-11T07:48:33;67.10;;;60.17;;
16916;SDS011;8575;52.418;13.492;2022-12-11T07:50:35;604.97;;;547.30;;
16916;SDS011;8575;52.418;13.492;2022-12-11T07:52:38;472.27;;;424.80;;
16916;SDS011;8575;52.418;13.492;2022-12-11T07:54:40;433.47;;;247.33;;
16916;SDS011;8575;52.418;13.492;2022-12-11T07:56:45;431.40;;;341.97;;
16916;SDS011;8575;52.418;13.492;2022-12-11T07:58:48;475.33;;;385.73;;
16916;SDS011;8575;52.418;13.492;2022-12-11T08:00:51;450.00;;;298.07;;
16916;SDS011;8575;52.418;13.492;2022-12-11T08:02:53;436.00;;;290.23;;
16916;SDS011;8575;52.418;13.492;2022-12-11T08:04:55;610.47;;;557.67;;
16916;SDS011;8575;52.418;13.492;2022-12-11T08:06:57;460.77;;;315.63;;
16916;SDS011;8575;52.418;13.492;2022-12-11T08:09:00;448.60;;;315.23;;
16916;SDS011;8575;52.418;13.492;2022-12-11T08:11:05;454.67;;;334.90;;
16916;SDS011;8575;52.418;13.492;2022-12-11T08:13:10;457.03;;;334.67;;
16916;SDS011;8575;52.418;13.492;2022-12-11T08:15:12;463.47;;;378.80;;
16916;SDS011;8575;52.418;13.492;2022-12-11T08:17:15;447.67;;;298.43;;
16916;SDS011;8575;52.418;13.492;2022-12-11T08:19:17;418.10;;;236.03;;
16916;SDS011;8575;52.418;13.492;2022-12-11T08:21:20;435.53;;;236.10;;
16916;SDS011;8575;52.418;13.492;2022-12-11T08:23:23;427.53;;;253.07;;
16916;SDS011;8575;52.418;13.492;2022-12-11T08:25:25;395.23;;;172.03;;
16916;SDS011;8575;52.418;13.492;2022-12-11T08:27:28;448.97;;;252.03;;
16916;SDS011;8575;52.418;13.492;2022-12-11T08:29:32;458.33;;;294.23;;
16916;SDS011;8575;52.418;13.492;2022-12-11T08:31:34;452.70;;;326.60;;
16916;SDS011;8575;52.418;13.492;2022-12-11T08:33:37;441.93;;;262.73;;
16916;SDS011;8575;52.418;13.492;2022-12-11T08:35:41;435.93;;;245.27;;
16916;SDS011;8575;52.418;13.492;2022-12-11T08:37:43;433.43;;;248.63;;
16916;SDS011;8575;52.418;13.492;2022-12-11T08:39:48;426.77;;;226.80;;
16916;SDS011;8575;52.418;13.492;2022-12-11T08:41:51;419.47;;;215.33;;
16916;SDS011;8575;52.418;13.492;2022-12-11T08:43:55;417.23;;;219.27;;
16916;SDS011;8575;52.418;13.492;2022-12-11T08:45:59;412.87;;;204.50;;
16916;SDS011;8575;52.418;13.492;2022-12-11T08:48:01;595.27;;;535.90;;
16916;SDS011;8575;52.418;13.492;2022-12-11T08:50:04;522.87;;;465.03;;
16916;SDS011;8575;52.418;13.492;2022-12-11T08:52:07;575.07;;;516.43;;
16916;SDS011;8575;52.418;13.492;2022-12-11T08:54:10;477.93;;;362.40;;
16916;SDS011;8575;52.418;13.492;2022-12-11T08:56:13;503.97;;;445.73;;
16916;SDS011;8575;52.418;13.492;2022-12-11T08:58:20;498.37;;;421.63;;
16916;SDS011;8575;52.418;13.492;2022-12-11T09:00:22;488.40;;;380.93;;
16916;SDS011;8575;52.418;13.492;2022-12-11T09:02:26;469.90;;;325.97;;
16916;SDS011;8575;52.418;13.492;2022-12-11T09:04:28;483.73;;;379.33;;
16916;SDS011;8575;52.418;13.492;2022-12-11T09:06:31;454.30;;;295.17;;
16916;SDS011;8575;52.418;13.492;2022-12-11T09:08:34;491.23;;;405.57;;
16916;SDS011;8575;52.418;13.492;2022-12-11T09:10:36;470.97;;;365.03;;
16916;SDS011;8575;52.418;13.492;2022-12-11T09:12:39;338.40;;;207.50;;
16916;SDS011;8575;52.418;13.492;2022-12-11T09:14:42;449.60;;;311.90;;
16916;SDS011;8575;52.418;13.492;2022-12-11T09:16:44;440.57;;;271.30;;
16916;SDS011;8575;52.418;13.492;2022-12-11T09:18:49;473.83;;;348.07;;
16916;SDS011;8575;52.418;13.492;2022-12-11T09:20:58;448.67;;;290.73;;
16916;SDS011;8575;52.418;13.492;2022-12-11T09:23:01;434.97;;;268.53;;
16916;SDS011;8575;52.418;13.492;2022-12-11T09:25:04;13.43;;;12.30;;
16916;SDS011;8575;52.418;13.492;2022-12-11T09:27:07;9.93;;;9.13;;
16916;SDS011;8575;52.418;13.492;2022-12-11T09:29:09;10.57;;;9.77;;
16916;SDS011;8575;52.418;13.492;2022-12-11T09:31:12;9.18;;;8.38;;
16916;SDS011;8575;52.418;13.492;2022-12-11T09:33:15;8.93;;;8.13;;
16916;SDS011;8575;52.418;13.492;2022-12-11T09:35:19;10.85;;;9.85;;
16916;SDS011;8575;52.418;13.492;2022-12-11T09:37:21;9.43;;;8.60;;
16916;SDS011;8575;52.418;13.492;2022-12-11T09:39:24;9.32;;;8.52;;
16916;SDS011;8575;52.418;13.492;2022-12-11T09:41:36;8.18;;;7.47;;
16916;SDS011;8575;52.418;13.492;2022-12-11T09:43:41;9.35;;;8.45;;
16916;SDS011;8575;52.418;13.492;2022-12-11T09:45:45;13.35;;;12.00;;
16916;SDS011;8575;52.418;13.492;2022-12-11T09:47:49;10.32;;;9.38;;
16916;SDS011;8575;52.418;13.492;2022-12-11T09:49:57;9.02;;;8.23;;
16916;SDS011;8575;52.418;13.492;2022-12-11T09:52:15;9.02;;;8.20;;
16916;SDS011;8575;52.418;13.492;2022-12-11T09:54:19;9.55;;;8.65;;
16916;SDS011;8575;52.418;13.492;2022-12-11T09:56:24;9.43;;;8.52;;
16916;SDS011;8575;52.418;13.492;2022-12-11T09:58:29;8.77;;;8.02;;
16916;SDS011;8575;52.418;13.492;2022-12-11T10:00:38;9.20;;;8.30;;
16916;SDS011;8575;52.418;13.492;2022-12-11T10:02:45;9.85;;;8.95;;
16916;SDS011;8575;52.418;13.492;2022-12-11T10:05:09;10.43;;;9.38;;
16916;SDS011;8575;52.418;13.492;2022-12-11T10:07:17;10.55;;;9.55;;
16916;SDS011;8575;52.418;13.492;2022-12-11T10:09:24;8.70;;;7.90;;
16916;SDS011;8575;52.418;13.492;2022-12-11T10:13:53;8.85;;;8.05;;
16916;SDS011;8575;52.418;13.492;2022-12-11T10:16:04;8.60;;;7.80;;
16916;SDS011;8575;52.418;13.492;2022-12-11T10:18:14;9.13;;;8.32;;
16916;SDS011;8575;52.418;13.492;2022-12-11T10:20:19;9.82;;;8.90;;
16916;SDS011;8575;52.418;13.492;2022-12-11T10:22:26;6.85;;;6.25;;
16916;SDS011;8575;52.418;13.492;2022-12-11T10:24:32;7.78;;;7.07;;
16916;SDS011;8575;52.418;13.492;2022-12-11T10:26:37;8.18;;;7.40;;
16916;SDS011;8575;52.418;13.492;2022-12-11T10:28:39;10.00;;;9.07;;
16916;SDS011;8575;52.418;13.492;2022-12-11T10:30:43;8.65;;;7.80;;
16916;SDS011;8575;52.418;13.492;2022-12-11T10:32:51;8.80;;;8.00;;
16916;SDS011;8575;52.418;13.492;2022-12-11T10:34:56;10.27;;;9.27;;
16916;SDS011;8575;52.418;13.492;2022-12-11T10:37:02;8.35;;;7.55;;
16916;SDS011;8575;52.418;13.492;2022-12-11T10:39:10;8.57;;;7.78;;
16916;SDS011;8575;52.418;13.492;2022-12-11T10:41:15;8.38;;;7.57;;
16916;SDS011;8575;52.418;13.492;2022-12-11T10:43:30;8.98;;;8.10;;
16916;SDS011;8575;52.418;13.492;2022-12-11T10:45:36;8.20;;;7.40;;
16916;SDS011;8575;52.418;13.492;2022-12-11T10:47:39;8.00;;;7.22;;
16916;SDS011;8575;52.418;13.492;2022-12-11T10:49:42;8.20;;;7.40;;
16916;SDS011;8575;52.418;13.492;2022-12-11T10:51:52;8.05;;;7.30;;
16916;SDS011;8575;52.418;13.492;2022-12-11T10:54:00;8.90;;;8.00;;
16916;SDS011;8575;52.418;13.492;2022-12-11T10:56:07;7.75;;;7.05;;
16916;SDS011;8575;52.418;13.492;2022-12-11T10:58:12;12.45;;;11.30;;
16916;SDS011;8575;52.418;13.492;2022-12-11T11:00:25;9.02;;;8.15;;
16916;SDS011;8575;52.418;13.492;2022-12-11T11:02:32;8.60;;;7.80;;
16916;SDS011;8575;52.418;13.492;2022-12-11T11:04:36;8.73;;;7.82;;
16916;SDS011;8575;52.418;13.492;2022-12-11T11:06:39;9.32;;;8.40;;
16916;SDS011;8575;52.418;13.492;2022-12-11T11:08:42;8.43;;;7.57;;
16916;SDS011;8575;52.418;13.492;2022-12-11T11:10:53;9.73;;;8.82;;
16916;SDS011;8575;52.418;13.492;2022-12-11T11:13:00;8.18;;;7.38;;
16916;SDS011;8575;52.418;13.492;2022-12-11T11:15:04;10.95;;;9.85;;
16916;SDS011;8575;52.418;13.492;2022-12-11T11:17:10;13.73;;;11.68;;
16916;SDS011;8575;52.418;13.492;2022-12-11T11:19:17;10.35;;;9.23;;
16916;SDS011;8575;52.418;13.492;2022-12-11T11:21:22;8.82;;;8.00;;
16916;SDS011;8575;52.418;13.492;2022-12-11T11:23:26;11.63;;;10.63;;
16916;SDS011;8575;52.418;13.492;2022-12-11T11:25:29;11.55;;;10.55;;
16916;SDS011;8575;52.418;13.492;2022-12-11T11:27:34;11.73;;;10.70;;
16916;SDS011;8575;52.418;13.492;2022-12-11T11:29:40;8.13;;;7.45;;
16916;SDS011;8575;52.418;13.492;2022-12-11T11:31:43;10.90;;;10.00;;
16916;SDS011;8575;52.418;13.492;2022-12-11T11:33:48;9.93;;;9.02;;
16916;SDS011;8575;52.418;13.492;2022-12-11T11:35:56;7.30;;;6.70;;
16916;SDS011;8575;52.418;13.492;2022-12-11T11:38:01;8.93;;;8.13;;
16916;SDS011;8575;52.418;13.492;2022-12-11T11:40:07;8.93;;;8.13;;
16916;SDS011;8575;52.418;13.492;2022-12-11T11:42:14;9.45;;;8.55;;
16916;SDS011;8575;52.418;13.492;2022-12-11T11:44:22;171.35;;;45.17;;
16916;SDS011;8575;52.418;13.492;2022-12-11T11:46:28;330.45;;;90.43;;
16916;SDS011;8575;52.418;13.492;2022-12-11T11:48:36;10.68;;;9.57;;
16916;SDS011;8575;52.418;13.492;2022-12-11T11:50:42;41.22;;;17.27;;
16916;SDS011;8575;52.418;13.492;2022-12-11T11:52:48;330.30;;;89.35;;
16916;SDS011;8575;52.418;13.492;2022-12-11T11:54:55;328.65;;;87.35;;
16916;SDS011;8575;52.418;13.492;2022-12-11T11:57:10;245.45;;;64.78;;
16916;SDS011;8575;52.418;13.492;2022-12-11T11:59:18;10.05;;;9.05;;
16916;SDS011;8575;52.418;13.492;2022-12-11T12:01:23;9.35;;;8.45;;
16916;SDS011;8575;52.418;13.492;2022-12-11T12:03:27;7.72;;;7.00;;
16916;SDS011;8575;52.418;13.492;2022-12-11T12:05:33;8.02;;;7.38;;
16916;SDS011;8575;52.418;13.492;2022-12-11T12:07:40;8.50;;;7.78;;
16916;SDS011;8575;52.418;13.492;2022-12-11T12:09:47;8.75;;;8.00;;
16916;SDS011;8575;52.418;13.492;2022-12-11T12:12:07;9.35;;;8.55;;
16916;SDS011;8575;52.418;13.492;2022-12-11T12:14:16;9.48;;;8.60;;
16916;SDS011;8575;52.418;13.492;2022-12-11T12:16:22;9.43;;;8.68;;
16916;SDS011;8575;52.418;13.492;2022-12-11T12:18:34;8.43;;;7.72;;
16916;SDS011;8575;52.418;13.492;2022-12-11T12:20:42;9.52;;;8.73;;
16916;SDS011;8575;52.418;13.492;2022-12-11T12:22:51;9.35;;;8.48;;
16916;SDS011;8575;52.418;13.492;2022-12-11T12:25:00;13.13;;;11.80;;
16916;SDS011;8575;52.418;13.492;2022-12-11T12:27:07;5.97;;;5.53;;